createdAt,value
2018-11-11T00:00:05.836Z,17.90
2018-11-11T00:02:32.720Z,16.73
2018-11-11T00:04:59.600Z,17.77
2018-11-11T00:07:26.514Z,16.67
2018-11-11T00:09:53.378Z,15.40
2018-11-11T00:12:20.423Z,15.17
2018-11-11T00:14:47.345Z,15.80
2018-11-11T00:17:14.202Z,15.53
2018-11-11T00:19:41.137Z,16.00
2018-11-11T00:22:08.083Z,15.57
2018-11-11T00:24:35.334Z,17.07
2018-11-11T00:27:02.318Z,18.23
2018-11-11T00:29:29.238Z,18.50
2018-11-11T00:31:56.171Z,18.20
2018-11-11T00:34:23.118Z,16.57
2018-11-11T00:36:50.055Z,17.50
2018-11-11T00:39:16.922Z,18.57
2018-11-11T00:41:43.848Z,18.70
2018-11-11T00:44:10.813Z,16.67
2018-11-11T00:46:37.735Z,18.37
2018-11-11T00:49:05.239Z,19.60
2018-11-11T00:51:32.142Z,17.77
2018-11-11T00:53:59.078Z,17.50
2018-11-11T00:56:25.922Z,18.60
2018-11-11T00:58:52.818Z,16.40
2018-11-11T01:01:19.714Z,16.87
2018-11-11T01:03:46.658Z,16.23
2018-11-11T01:06:13.595Z,17.77
2018-11-11T01:08:40.454Z,20.40
2018-11-11T01:11:07.390Z,19.80
2018-11-11T01:13:34.228Z,20.93
2018-11-11T01:16:01.083Z,21.03
2018-11-11T01:18:28.019Z,20.90
2018-11-11T01:20:54.870Z,22.80
2018-11-11T01:23:21.847Z,22.00
2018-11-11T01:25:48.746Z,21.27
2018-11-11T01:28:15.615Z,21.00
2018-11-11T01:30:42.538Z,20.77
2018-11-11T01:33:09.478Z,19.43
2018-11-11T01:35:36.446Z,18.83
2018-11-11T01:38:03.362Z,16.70
2018-11-11T01:40:30.230Z,16.77
2018-11-11T01:42:57.159Z,15.97
2018-11-11T01:45:24.118Z,15.90
2018-11-11T01:47:51.050Z,14.53
2018-11-11T01:50:17.986Z,13.80
2018-11-11T01:52:44.845Z,12.60
2018-11-11T01:55:12.502Z,11.90
2018-11-11T01:57:39.530Z,13.40
2018-11-11T02:00:08.858Z,9.93
2018-11-11T02:02:36.063Z,10.70
2018-11-11T02:05:03.035Z,11.90
2018-11-11T02:07:29.881Z,15.70
2018-11-11T02:09:56.913Z,13.83
2018-11-11T02:12:23.769Z,12.93
2018-11-11T02:14:50.623Z,13.57
2018-11-11T02:17:17.558Z,15.50
2018-11-11T02:19:45.443Z,17.77
2018-11-11T02:22:12.642Z,17.60
2018-11-11T02:24:39.531Z,16.37
2018-11-11T02:27:06.582Z,14.63
2018-11-11T02:29:33.507Z,14.83
2018-11-11T02:32:00.380Z,14.20
2018-11-11T02:34:27.300Z,16.30
2018-11-11T02:36:54.254Z,14.80
2018-11-11T02:39:21.196Z,15.07
2018-11-11T02:41:48.144Z,15.33
2018-11-11T02:44:15.075Z,16.90
2018-11-11T02:46:41.938Z,15.83
2018-11-11T02:49:08.878Z,17.50
2018-11-11T02:51:36.011Z,18.07
2018-11-11T02:54:02.867Z,19.57
2018-11-11T02:56:29.806Z,20.80
2018-11-11T02:58:56.790Z,20.47
2018-11-11T03:01:23.698Z,19.30
2018-11-11T03:03:50.657Z,18.30
2018-11-11T03:06:17.596Z,15.90
2018-11-11T03:08:44.531Z,16.90
2018-11-11T03:11:11.475Z,16.13
2018-11-11T03:13:38.446Z,16.77
2018-11-11T03:16:05.378Z,15.30
2018-11-11T03:18:32.308Z,15.00
2018-11-11T03:20:59.271Z,16.80
2018-11-11T03:23:26.205Z,16.83
2018-11-11T03:25:53.136Z,14.97
2018-11-11T03:28:19.994Z,17.30
2018-11-11T03:30:46.975Z,15.73
2018-11-11T03:33:13.886Z,14.83
2018-11-11T03:35:40.830Z,15.97
2018-11-11T03:38:07.783Z,15.83
2018-11-11T03:40:34.703Z,14.93
2018-11-11T03:43:01.563Z,14.70
2018-11-11T03:45:28.499Z,15.03
2018-11-11T03:47:55.434Z,14.13
2018-11-11T03:50:22.291Z,15.17
2018-11-11T03:52:49.231Z,14.83
2018-11-11T03:55:16.257Z,14.60
2018-11-11T03:57:43.171Z,15.37
2018-11-11T04:00:11.426Z,15.17
2018-11-11T04:02:38.359Z,20.90
2018-11-11T04:05:05.736Z,15.90
2018-11-11T04:07:32.631Z,16.50
2018-11-11T04:09:59.518Z,14.10
2018-11-11T04:12:26.431Z,16.70
2018-11-11T04:14:53.466Z,18.50
2018-11-11T04:17:20.350Z,16.53
2018-11-11T04:19:47.258Z,18.17
2018-11-11T04:22:16.965Z,16.73
2018-11-11T04:24:43.854Z,18.43
2018-11-11T04:29:38.059Z,15.83
2018-11-11T04:32:04.984Z,18.50
2018-11-11T04:34:31.979Z,15.20
2018-11-11T04:36:58.843Z,13.53
2018-11-11T04:39:25.703Z,15.13
2018-11-11T04:41:52.627Z,16.37
2018-11-11T04:44:19.578Z,15.77
2018-11-11T04:46:46.519Z,16.10
2018-11-11T04:49:13.366Z,16.03
2018-11-11T04:51:40.315Z,16.90
2018-11-11T04:54:07.261Z,17.37
2018-11-11T04:56:34.239Z,16.40
2018-11-11T04:59:01.139Z,15.13
2018-11-11T05:01:28.111Z,14.93
2018-11-11T05:03:55.023Z,14.23
2018-11-11T05:06:21.874Z,14.20
2018-11-11T05:08:48.824Z,15.70
2018-11-11T05:11:15.767Z,14.60
2018-11-11T05:13:42.739Z,15.50
2018-11-11T05:16:09.570Z,14.40
2018-11-11T05:18:36.487Z,15.50
2018-11-11T05:21:03.338Z,17.97
2018-11-11T05:23:30.196Z,22.27
2018-11-11T05:25:57.155Z,19.70
2018-11-11T05:28:24.072Z,15.73
2018-11-11T05:30:51.056Z,16.30
2018-11-11T05:33:17.961Z,15.37
2018-11-11T05:35:44.923Z,16.33
2018-11-11T05:38:11.847Z,16.00
2018-11-11T05:40:38.836Z,14.20
2018-11-11T05:43:05.738Z,17.50
2018-11-11T05:45:32.682Z,17.97
2018-11-11T05:47:59.634Z,17.57
2018-11-11T05:50:26.629Z,20.13
2018-11-11T05:52:53.518Z,20.27
2018-11-11T05:55:20.370Z,19.37
2018-11-11T05:57:47.306Z,16.53
2018-11-11T06:00:15.553Z,17.10
2018-11-11T06:02:42.732Z,15.93
2018-11-11T06:05:10.907Z,17.60
2018-11-11T06:07:37.862Z,16.10
2018-11-11T06:10:06.003Z,15.20
2018-11-11T06:12:32.887Z,15.00
2018-11-11T06:14:59.819Z,13.87
2018-11-11T06:17:26.759Z,12.90
2018-11-11T06:19:53.703Z,12.80
2018-11-11T06:22:20.643Z,13.90
2018-11-11T06:24:47.728Z,12.00
2018-11-11T06:27:14.642Z,12.20
2018-11-11T06:29:41.621Z,11.40
2018-11-11T06:32:08.543Z,11.70
2018-11-11T06:34:35.567Z,10.13
2018-11-11T06:37:02.427Z,11.87
2018-11-11T06:39:29.374Z,11.47
2018-11-11T06:41:56.310Z,12.40
2018-11-11T06:44:23.255Z,13.80
2018-11-11T06:46:50.202Z,12.47
2018-11-11T06:49:17.135Z,11.93
2018-11-11T06:51:44.138Z,12.10
2018-11-11T06:54:11.044Z,9.90
2018-11-11T06:56:37.974Z,9.47
2018-11-11T06:59:04.987Z,8.27
2018-11-11T07:01:31.894Z,8.00
2018-11-11T07:04:00.872Z,10.03
2018-11-11T07:06:28.210Z,8.50
2018-11-11T07:08:55.178Z,8.00
2018-11-11T07:11:22.091Z,8.10
2018-11-11T07:13:49.040Z,9.23
2018-11-11T07:16:15.898Z,9.30
2018-11-11T07:18:43.858Z,7.80
2018-11-11T07:21:10.810Z,8.20
2018-11-11T07:23:37.799Z,8.73
2018-11-11T07:26:04.795Z,8.23
2018-11-11T07:28:31.739Z,7.90
2018-11-11T07:30:58.738Z,6.77
2018-11-11T07:33:26.170Z,6.27
2018-11-11T07:35:53.114Z,6.60
2018-11-11T07:38:20.046Z,6.13
2018-11-11T07:40:46.985Z,5.40
2018-11-11T07:43:13.915Z,5.80
2018-11-11T07:45:40.795Z,6.13
2018-11-11T07:48:07.707Z,5.83
2018-11-11T07:50:34.674Z,5.63
2018-11-11T07:53:01.601Z,6.50
2018-11-11T07:55:28.538Z,8.50
2018-11-11T07:57:55.535Z,8.13
2018-11-11T08:00:22.453Z,6.63
2018-11-11T08:02:49.437Z,8.00
2018-11-11T08:05:16.358Z,6.23
2018-11-11T08:07:43.281Z,7.90
2018-11-11T08:10:22.115Z,6.50
2018-11-11T08:12:49.074Z,5.50
2018-11-11T08:15:15.979Z,5.80
2018-11-11T08:17:42.926Z,5.90
2018-11-11T08:20:09.909Z,5.30
2018-11-11T08:22:36.819Z,5.33
2018-11-11T08:25:03.692Z,5.83
2018-11-11T08:27:30.647Z,6.00
2018-11-11T08:29:57.589Z,5.20
2018-11-11T08:32:24.576Z,4.83
2018-11-11T08:34:51.468Z,4.97
2018-11-11T08:37:18.420Z,5.20
2018-11-11T08:39:45.358Z,5.00
2018-11-11T08:42:12.295Z,4.70
2018-11-11T08:44:39.243Z,4.90
2018-11-11T08:47:06.246Z,4.77
2018-11-11T08:49:33.166Z,4.23
2018-11-11T08:52:00.075Z,4.17
2018-11-11T08:54:28.799Z,4.20
2018-11-11T08:56:55.720Z,3.33
2018-11-11T08:59:22.680Z,3.30
2018-11-11T09:01:50.631Z,3.20
2018-11-11T09:04:17.660Z,2.70
2018-11-11T09:06:45.579Z,3.30
2018-11-11T09:09:13.423Z,2.60
2018-11-11T09:11:40.657Z,2.90
2018-11-11T09:14:08.527Z,2.57
2018-11-11T09:16:35.476Z,2.90
2018-11-11T09:19:02.427Z,2.80
2018-11-11T09:21:31.416Z,2.23
2018-11-11T09:23:58.257Z,2.80
2018-11-11T09:26:25.207Z,2.10
2018-11-11T09:28:52.145Z,1.90
2018-11-11T09:31:19.087Z,2.20
2018-11-11T09:33:46.034Z,1.87
2018-11-11T09:36:12.984Z,1.50
2018-11-11T09:38:39.919Z,1.67
2018-11-11T09:41:07.670Z,1.20
2018-11-11T09:43:34.687Z,1.67
2018-11-11T09:46:01.567Z,1.60
2018-11-11T09:48:28.512Z,1.53
2018-11-11T09:50:55.463Z,1.40
2018-11-11T09:53:22.405Z,1.50
2018-11-11T09:55:50.205Z,1.60
2018-11-11T09:58:17.118Z,1.50
2018-11-11T10:00:44.602Z,1.50
2018-11-11T10:03:17.259Z,1.90
2018-11-11T10:06:04.382Z,1.50
2018-11-11T10:08:50.923Z,1.00
2018-11-11T10:11:30.226Z,1.20
2018-11-11T10:14:02.767Z,1.20
2018-11-11T10:16:34.249Z,1.80
2018-11-11T10:19:20.778Z,1.40
2018-11-11T10:22:07.300Z,1.20
2018-11-11T10:24:38.314Z,1.40
2018-11-11T10:27:13.934Z,1.53
2018-11-11T10:29:46.751Z,1.20
2018-11-11T10:32:30.639Z,1.10
2018-11-11T10:35:05.627Z,1.20
2018-11-11T10:37:38.188Z,1.30
2018-11-11T10:40:10.110Z,1.12
2018-11-11T10:42:46.075Z,1.07
2018-11-11T10:45:35.400Z,1.20
2018-11-11T10:48:06.575Z,1.00
2018-11-11T10:50:51.764Z,1.00
2018-11-11T10:53:18.707Z,0.80
2018-11-11T10:55:47.627Z,1.03
2018-11-11T10:58:14.600Z,0.70
2018-11-11T11:00:48.313Z,0.90
2018-11-11T11:03:35.223Z,1.20
2018-11-11T11:06:02.639Z,1.30
2018-11-11T11:08:29.677Z,1.37
2018-11-11T11:10:56.735Z,1.23
2018-11-11T11:13:25.199Z,1.13
2018-11-11T11:15:52.047Z,0.80
2018-11-11T11:18:18.975Z,0.90
2018-11-11T11:20:45.926Z,0.87
2018-11-11T11:23:12.875Z,0.90
2018-11-11T11:25:39.852Z,1.57
2018-11-11T11:28:06.771Z,1.13
2018-11-11T11:30:33.694Z,1.10
2018-11-11T11:33:00.556Z,1.10
2018-11-11T11:35:27.559Z,1.13
2018-11-11T11:37:54.495Z,1.10
2018-11-11T11:40:21.468Z,1.20
2018-11-11T11:42:48.328Z,1.10
2018-11-11T11:45:15.298Z,1.10
2018-11-11T11:47:42.432Z,2.50
2018-11-11T11:50:10.484Z,0.93
2018-11-11T11:52:37.487Z,1.23
2018-11-11T11:55:04.839Z,1.10
2018-11-11T11:57:31.745Z,1.60
2018-11-11T11:59:58.695Z,2.60
2018-11-11T12:02:25.635Z,1.37
2018-11-11T12:04:52.563Z,1.30
2018-11-11T12:07:19.560Z,1.13
2018-11-11T12:09:46.489Z,1.13
2018-11-11T12:12:13.412Z,1.10
2018-11-11T12:14:40.355Z,1.13
2018-11-11T12:17:07.345Z,1.50
2018-11-11T12:19:34.243Z,1.53
2018-11-11T12:22:01.179Z,1.00
2018-11-11T12:24:28.138Z,0.93
2018-11-11T12:26:55.071Z,1.00
2018-11-11T12:29:22.050Z,0.80
2018-11-11T12:31:48.969Z,0.90
2018-11-11T12:34:15.923Z,1.00
2018-11-11T12:36:42.869Z,1.83
2018-11-11T12:39:11.188Z,1.20
2018-11-11T12:41:37.979Z,1.30
2018-11-11T12:44:04.919Z,1.20
2018-11-11T12:46:31.905Z,1.23
2018-11-11T12:48:58.857Z,1.43
2018-11-11T12:51:28.051Z,0.90
2018-11-11T12:53:56.527Z,1.33
2018-11-11T12:56:24.317Z,0.90
2018-11-11T12:58:52.071Z,1.30
2018-11-11T13:01:24.959Z,1.23
2018-11-11T13:03:53.234Z,1.00
2018-11-11T13:06:21.008Z,0.97
2018-11-11T13:08:52.223Z,1.40
2018-11-11T13:11:20.648Z,0.93
2018-11-11T13:13:48.592Z,1.30
2018-11-11T13:16:16.683Z,1.00
2018-11-11T13:18:45.511Z,1.00
2018-11-11T13:21:15.041Z,1.03
2018-11-11T13:23:44.063Z,1.80
2018-11-11T13:26:12.629Z,0.90
2018-11-11T13:28:40.111Z,1.20
2018-11-11T13:31:09.185Z,1.20
2018-11-11T13:33:37.176Z,1.27
2018-11-11T13:36:06.327Z,0.77
2018-11-11T13:38:35.115Z,1.03
2018-11-11T13:41:05.055Z,1.27
2018-11-11T13:43:34.353Z,1.40
2018-11-11T13:46:02.345Z,1.00
2018-11-11T13:48:30.238Z,1.00
2018-11-11T13:50:58.773Z,1.10
2018-11-11T13:53:28.223Z,1.30
2018-11-11T13:55:56.423Z,0.97
2018-11-11T13:58:24.327Z,0.90
2018-11-11T14:00:52.555Z,1.80
2018-11-11T14:03:20.559Z,1.25
2018-11-11T14:05:49.423Z,0.90
2018-11-11T14:08:17.896Z,1.37
2018-11-11T14:10:47.331Z,1.47
2018-11-11T14:13:15.441Z,1.43
2018-11-11T14:15:43.343Z,1.20
2018-11-11T14:18:13.700Z,1.23
2018-11-11T14:20:42.234Z,1.53
2018-11-11T14:23:10.843Z,2.53
2018-11-11T14:25:43.953Z,1.20
2018-11-11T14:28:12.471Z,2.20
2018-11-11T14:30:40.666Z,2.20
2018-11-11T14:33:12.082Z,2.00
2018-11-11T14:35:41.455Z,1.83
2018-11-11T14:38:10.404Z,2.30
2018-11-11T14:40:38.343Z,1.70
2018-11-11T14:43:06.701Z,2.03
2018-11-11T14:45:34.589Z,2.40
2018-11-11T14:48:03.228Z,2.00
2018-11-11T14:50:30.519Z,1.30
2018-11-11T14:53:03.792Z,1.40
2018-11-11T14:55:36.199Z,1.40
2018-11-11T14:58:06.158Z,1.13
2018-11-11T15:00:34.834Z,0.93
2018-11-11T15:03:10.172Z,1.20
2018-11-11T15:05:39.002Z,1.20
2018-11-11T15:08:07.215Z,0.90
2018-11-11T15:10:35.050Z,0.90
2018-11-11T15:13:06.596Z,0.80
2018-11-11T15:15:35.167Z,1.10
2018-11-11T15:18:04.747Z,0.90
2018-11-11T15:20:34.386Z,0.90
2018-11-11T15:23:02.807Z,0.80
2018-11-11T15:25:30.795Z,1.00
2018-11-11T15:27:58.011Z,1.10
2018-11-11T15:30:30.984Z,0.80
2018-11-11T15:32:58.990Z,0.80
2018-11-11T15:35:27.854Z,0.80
2018-11-11T15:37:56.179Z,1.63
2018-11-11T15:40:25.861Z,0.80
2018-11-11T15:42:54.288Z,1.00
2018-11-11T15:45:26.191Z,1.00
2018-11-11T15:47:55.563Z,0.70
2018-11-11T15:50:26.428Z,0.80
2018-11-11T15:52:57.399Z,0.73
2018-11-11T15:55:26.710Z,1.00
2018-11-11T15:57:56.455Z,0.83
2018-11-11T16:00:33.403Z,1.07
2018-11-11T16:03:01.483Z,1.10
2018-11-11T16:05:29.927Z,1.90
2018-11-11T16:07:58.951Z,3.52
2018-11-11T16:10:30.296Z,3.80
2018-11-11T16:12:59.474Z,3.00
2018-11-11T16:15:29.650Z,3.40
2018-11-11T16:17:59.159Z,2.67
2018-11-11T16:20:30.420Z,3.00
2018-11-11T16:23:00.835Z,2.70
2018-11-11T16:25:30.145Z,2.43
2018-11-11T16:28:03.859Z,2.20
2018-11-11T16:30:33.957Z,2.90
2018-11-11T16:33:04.291Z,2.80
2018-11-11T16:35:40.758Z,2.33
2018-11-11T16:38:10.515Z,1.80
2018-11-11T16:40:40.705Z,1.77
2018-11-11T16:43:13.947Z,1.70
2018-11-11T16:45:47.503Z,2.10
2018-11-11T16:48:19.056Z,3.23
2018-11-11T16:50:49.287Z,2.13
2018-11-11T16:55:50.290Z,1.30
2018-11-11T16:58:21.800Z,1.67
2018-11-11T17:00:50.471Z,3.67
2018-11-11T17:03:20.814Z,4.20
2018-11-11T17:05:54.437Z,4.13
2018-11-11T17:08:21.368Z,3.60
2018-11-11T17:10:48.291Z,4.90
2018-11-11T17:13:17.098Z,4.07
2018-11-11T17:15:47.470Z,4.73
2018-11-11T17:18:17.899Z,3.70
2018-11-11T17:20:44.847Z,3.73
2018-11-11T17:23:11.736Z,3.47
2018-11-11T17:25:40.643Z,1.77
2018-11-11T17:28:07.684Z,2.50
2018-11-11T17:30:39.192Z,1.60
2018-11-11T17:33:06.304Z,1.83
2018-11-11T17:35:35.527Z,1.10
2018-11-11T17:38:06.061Z,0.97
2018-11-11T17:40:33.198Z,1.90
2018-11-11T17:43:00.694Z,2.23
2018-11-11T17:45:27.698Z,2.60
2018-11-11T17:47:58.555Z,2.30
2018-11-11T17:50:30.923Z,1.53
2018-11-11T17:53:02.353Z,1.50
2018-11-11T17:55:30.251Z,1.50
2018-11-11T17:58:01.059Z,1.77
2018-11-11T18:00:31.971Z,2.37
2018-11-11T18:03:01.739Z,2.83
2018-11-11T18:05:31.451Z,2.50
2018-11-11T18:08:00.343Z,2.33
2018-11-11T18:10:28.754Z,3.00
2018-11-11T18:12:56.319Z,3.10
2018-11-11T18:15:26.319Z,2.30
2018-11-11T18:17:53.913Z,2.40
2018-11-11T18:20:28.848Z,2.53
2018-11-11T18:22:56.816Z,3.03
2018-11-11T18:25:23.759Z,2.20
2018-11-11T18:27:51.908Z,3.53
2018-11-11T18:30:21.939Z,3.80
2018-11-11T18:32:51.822Z,3.30
2018-11-11T18:35:20.372Z,3.10
2018-11-11T18:37:48.092Z,2.53
2018-11-11T18:40:17.766Z,2.77
2018-11-11T18:42:46.414Z,3.00
2018-11-11T18:45:17.099Z,3.30
2018-11-11T18:47:45.567Z,3.85
2018-11-11T18:50:18.451Z,4.43
2018-11-11T18:52:45.876Z,3.87
2018-11-11T18:55:13.896Z,4.00
2018-11-11T18:57:42.240Z,4.67
2018-11-11T19:00:14.593Z,4.00
2018-11-11T19:02:44.568Z,4.20
2018-11-11T19:05:13.591Z,4.13
2018-11-11T19:07:42.801Z,4.83
2018-11-11T19:10:16.189Z,4.10
2018-11-11T19:12:55.918Z,4.23
2018-11-11T19:15:27.546Z,2.67
2018-11-11T19:17:55.203Z,3.33
2018-11-11T19:20:25.465Z,3.40
2018-11-11T19:22:53.092Z,3.73
2018-11-11T19:25:21.968Z,4.10
2018-11-11T19:27:51.746Z,3.90
2018-11-11T19:30:21.552Z,4.10
2018-11-11T19:32:49.389Z,4.00
2018-11-11T19:35:17.589Z,4.00
2018-11-11T19:37:47.592Z,3.70
2018-11-11T19:40:17.994Z,3.40
2018-11-11T19:42:45.530Z,3.27
2018-11-11T19:45:15.403Z,5.20
2018-11-11T19:47:44.075Z,3.83
2018-11-11T19:50:14.659Z,3.90
2018-11-11T19:52:46.234Z,4.45
2018-11-11T19:55:17.254Z,4.90
2018-11-11T19:57:46.598Z,4.97
2018-11-11T20:00:16.581Z,5.33
2018-11-11T20:02:45.196Z,5.27
2018-11-11T20:05:13.415Z,6.40
2018-11-11T20:07:41.529Z,7.47
2018-11-11T20:10:12.876Z,8.37
2018-11-11T20:12:40.193Z,5.80
2018-11-11T20:15:15.055Z,6.50
2018-11-11T20:17:50.798Z,6.60
2018-11-11T20:20:21.483Z,7.60
2018-11-11T20:22:48.996Z,6.30
2018-11-11T20:25:17.574Z,7.50
2018-11-11T20:27:45.052Z,5.57
2018-11-11T20:30:15.238Z,6.47
2018-11-11T20:32:42.237Z,8.05
2018-11-11T20:35:10.603Z,9.20
2018-11-11T20:37:38.423Z,9.30
2018-11-11T20:40:07.479Z,8.57
2018-11-11T20:42:34.367Z,7.60
2018-11-11T20:45:01.411Z,7.67
2018-11-11T20:47:28.354Z,7.60
2018-11-11T20:49:55.412Z,7.30
2018-11-11T20:52:22.268Z,6.43
2018-11-11T20:54:49.240Z,5.97
2018-11-11T20:57:16.131Z,5.73
2018-11-11T20:59:43.093Z,3.30
2018-11-11T21:02:10.019Z,3.20
2018-11-11T21:04:36.977Z,3.17
2018-11-11T21:07:05.986Z,2.80
2018-11-11T21:09:32.912Z,3.27
2018-11-11T21:11:59.847Z,3.10
2018-11-11T21:14:26.819Z,2.83
2018-11-11T21:16:53.735Z,2.90
2018-11-11T21:19:20.747Z,3.17
2018-11-11T21:21:47.675Z,2.80
2018-11-11T21:24:16.633Z,3.03
2018-11-11T21:26:43.578Z,2.80
2018-11-11T21:29:11.539Z,2.73
2018-11-11T21:31:38.478Z,3.07
2018-11-11T21:34:05.427Z,2.27
2018-11-11T21:36:32.375Z,2.80
2018-11-11T21:38:59.315Z,2.60
2018-11-11T21:41:26.258Z,3.43
2018-11-11T21:43:54.131Z,3.07
2018-11-11T21:46:20.983Z,2.80
2018-11-11T21:48:47.843Z,3.00
2018-11-11T21:51:14.863Z,2.53
2018-11-11T21:53:41.815Z,3.17
2018-11-11T21:56:09.082Z,3.20
2018-11-11T21:58:37.986Z,3.00
2018-11-11T22:01:05.252Z,2.70
2018-11-11T22:03:32.147Z,2.50
2018-11-11T22:06:00.213Z,2.80
2018-11-11T22:08:27.195Z,3.30
2018-11-11T22:10:54.180Z,2.47
2018-11-11T22:13:21.763Z,2.70
2018-11-11T22:15:48.929Z,3.05
2018-11-11T22:18:16.255Z,3.00
2018-11-11T22:20:43.203Z,3.20
2018-11-11T22:23:10.153Z,2.90
2018-11-11T22:25:37.103Z,3.70
2018-11-11T22:28:04.193Z,3.00
2018-11-11T22:30:30.895Z,3.17
2018-11-11T22:32:57.827Z,2.93
2018-11-11T22:35:24.775Z,3.30
2018-11-11T22:37:51.723Z,3.50
2018-11-11T22:40:18.667Z,3.50
2018-11-11T22:42:45.606Z,3.60
2018-11-11T22:45:13.778Z,2.87
2018-11-11T22:47:40.738Z,2.70
2018-11-11T22:50:10.327Z,3.30
2018-11-11T22:52:37.857Z,3.60
2018-11-11T22:55:05.031Z,3.33
2018-11-11T22:57:31.924Z,3.80
2018-11-11T22:59:58.884Z,3.50
2018-11-11T23:02:25.767Z,3.20
2018-11-11T23:04:53.148Z,3.10
2018-11-11T23:07:19.991Z,3.07
2018-11-11T23:09:48.848Z,3.57
2018-11-11T23:12:15.855Z,3.50
2018-11-11T23:14:42.762Z,3.27
2018-11-11T23:17:09.707Z,3.27
2018-11-11T23:19:36.637Z,3.47
2018-11-11T23:22:03.584Z,3.40
2018-11-11T23:24:30.576Z,3.53
2018-11-11T23:26:59.523Z,3.23
2018-11-11T23:29:27.395Z,3.40
2018-11-11T23:31:54.331Z,3.37
2018-11-11T23:34:21.184Z,3.27
2018-11-11T23:36:48.053Z,3.73
2018-11-11T23:39:14.979Z,3.80
2018-11-11T23:41:41.925Z,3.30
2018-11-11T23:44:09.260Z,3.83
2018-11-11T23:46:36.656Z,4.10
2018-11-11T23:49:03.669Z,4.30
2018-11-11T23:51:31.535Z,4.13
2018-11-11T23:53:58.466Z,3.93
2018-11-11T23:56:25.439Z,4.53
2018-11-11T23:58:53.456Z,3.93
